Lihue, HI (96766)

11:39 PM HST on March 23, 2017 (GMT -1000)
Ulu Mahi | | Change Station

Elev 200 ft 21.97 °N, 159.37 °W | Updated 47 seconds ago

Overcast
Overcast
72.1 °F
Feels Like 72.1 °F
N
2.2
Wind Variable Wind from WNW

Today
High -- | Low -- °F
--% Chance of Precip.
Yesterday
High -- | Low -- °F
Precip. -- in
Pressure 30.17 in
Visibility 10.0 miles
Clouds Mostly Cloudy 1500 ft
Mostly Cloudy 2400 ft
Overcast 3100 ft
Dew Point 69 °F
Humidity 90%
Rainfall in
Snow Depth Not available.
6:38 AM 6:49 PM
Waning Crescent, 16% visible
SPECI PHLI 240933Z AUTO 07008KT 10SM BKN015 BKN024 OVC031 23/21 A3017 RMK AO2 T02330206 TSNO $
Pressure 30.17 in
Visibility 10.0 miles
Clouds Mostly Cloudy 1500 ft
Mostly Cloudy 2400 ft
Overcast 3100 ft
Dew Point 69 °F
Humidity 90%
Rainfall in
Snow Depth Not available.
6:38 AM 6:49 PM
Waning Crescent, 16% visible
SPECI PHLI 240933Z AUTO 07008KT 10SM BKN015 BKN024 OVC031 23/21 A3017 RMK AO2 T02330206 TSNO $

Get Severe Weather Alerts

Thanks for signing up!

Be on the lookout for a verification email in your inbox.

You'll start receiving the daily forecast at 8 AM.

×

10-Day Weather Forecast

Almanac

Astronomy

Mar. 23, 2017 Rise Set
Actual Time
Civil Twilight
Nautical Twilight
Astronomical Twilight
Moon
Length of Visible Light
Length of Day
Tomorrow will be .
, % of the Moon is Illuminated

Today's Extremes

State Highs State Lows

Community

WunderPhotos

Upload Photos

1,962,540 photos uploaded!

WunderBlog® & News

Nearby

Air Quality

  Air Quality AQ Index Pollutant
Not available.

Snow Depth

Station Depth Elevation

Earthquake Activity

City Distance Mag. Time & Date
Minimum magnitude displayed is 2.5.

Earthquake Activity

City Distance Mag. Time & Date
Minimum magnitude displayed is 2.5.

Coastal Water Temperatures

Place Temperature

Stations

Nearby Weather Stations

Station Location Temp. Windchill Dew Point Humidity Wind Precip. Elev Updated Type
                   

Watches & Warnings

There are currently no watches in effect.